Time;durP1;ratioP1;P1;durP2;ratioP2;P2;SDS_P1;SDS_P2;PMS_P1;PMS_P2;Temp;Humidity;BMP_temperature;BMP_pressure;BME280_temperature;BME280_humidity;BME280_pressure;Samples;Min_cycle;Max_cycle;Signal;HPM_P1;HPM_P2
2020/12/28 00:01:29;;;;;;;12.00;5.85;;;1.90;65.80;;;;;;5002626;28;20046;-74
2020/12/28 00:03:54;;;;;;;11.02;5.80;;;1.90;66.00;;;;;;5004318;28;20112;-75
2020/12/28 00:06:20;;;;;;;11.60;6.15;;;2.00;66.40;;;;;;5003421;28;20234;-74
2020/12/28 00:08:45;;;;;;;9.45;5.78;;;2.00;65.00;;;;;;5004092;28;20043;-75
2020/12/28 00:11:11;;;;;;;10.45;5.90;;;2.00;65.70;;;;;;5003597;28;20030;-75
2020/12/28 00:13:36;;;;;;;11.27;6.70;;;2.00;65.30;;;;;;5003089;28;20057;-74
2020/12/28 00:16:02;;;;;;;13.65;6.70;;;2.10;64.60;;;;;;5003948;28;20225;-75
2020/12/28 00:18:27;;;;;;;12.25;7.15;;;2.10;65.50;;;;;;5002902;28;20360;-74
2020/12/28 00:20:53;;;;;;;11.93;7.50;;;2.00;64.70;;;;;;5004313;28;20038;-75
2020/12/28 00:23:18;;;;;;;13.88;7.13;;;2.00;65.70;;;;;;5003334;28;20034;-75
2020/12/28 00:25:44;;;;;;;12.93;7.00;;;1.90;65.30;;;;;;5002142;28;20030;-75
2020/12/28 00:28:09;;;;;;;13.07;7.10;;;2.00;65.60;;;;;;5003863;28;20033;-75
2020/12/28 00:30:35;;;;;;;13.93;7.30;;;1.90;65.10;;;;;;5003401;28;20030;-75
2020/12/28 00:33:00;;;;;;;12.35;7.30;;;2.00;66.00;;;;;;5003702;28;20274;-75
2020/12/28 00:35:26;;;;;;;11.20;7.07;;;2.00;65.90;;;;;;5003280;28;20046;-75
2020/12/28 00:37:51;;;;;;;11.43;6.70;;;2.00;65.60;;;;;;5001846;28;20034;-74
2020/12/28 00:40:17;;;;;;;14.57;7.10;;;1.90;65.50;;;;;;5003324;28;20046;-75
2020/12/28 00:42:43;;;;;;;11.05;6.70;;;1.90;65.90;;;;;;5002859;28;20034;-74
2020/12/28 00:45:11;;;;;;;13.98;7.20;;;1.90;66.40;;;;;;5003468;28;20042;-75
2020/12/28 00:47:37;;;;;;;12.65;6.97;;;1.90;66.80;;;;;;5003051;28;20034;-75
2020/12/28 00:50:06;;;;;;;12.43;6.85;;;2.00;66.90;;;;;;5001973;28;20054;-74
2020/12/28 00:52:32;;;;;;;13.23;7.40;;;1.90;66.40;;;;;;5002996;28;20049;-74
2020/12/28 00:54:57;;;;;;;12.90;7.20;;;1.90;67.30;;;;;;5003351;28;20042;-74
2020/12/28 00:57:23;;;;;;;14.15;6.90;;;2.00;66.40;;;;;;5002768;28;20076;-74
2020/12/28 00:59:48;;;;;;;12.35;7.03;;;2.10;67.10;;;;;;5002959;28;20034;-75
2020/12/28 01:02:14;;;;;;;12.60;7.22;;;2.00;65.50;;;;;;5001754;28;20373;-74
2020/12/28 01:04:39;;;;;;;14.05;7.75;;;2.10;66.70;;;;;;5001256;28;20034;-74
2020/12/28 01:07:05;;;;;;;12.10;7.15;;;2.00;65.70;;;;;;5002936;28;20278;-74
2020/12/28 01:09:31;;;;;;;17.23;7.70;;;2.00;66.10;;;;;;5002567;28;20038;-75
2020/12/28 01:11:57;;;;;;;13.40;7.60;;;2.00;65.60;;;;;;5004034;28;20038;-74
2020/12/28 01:14:22;;;;;;;12.98;7.28;;;1.90;66.10;;;;;;5002553;28;20050;-75
2020/12/28 01:16:48;;;;;;;13.52;8.10;;;2.00;67.20;;;;;;5002527;28;20321;-74
2020/12/28 01:19:13;;;;;;;14.70;7.35;;;2.10;67.00;;;;;;5004027;28;20050;-75
2020/12/28 01:21:39;;;;;;;11.55;7.10;;;2.10;66.70;;;;;;5002411;28;20050;-74
2020/12/28 01:24:05;;;;;;;12.65;7.80;;;2.10;67.30;;;;;;5004273;28;20045;-75
2020/12/28 01:26:30;;;;;;;14.00;7.70;;;2.00;66.30;;;;;;5002461;28;20042;-74
2020/12/28 01:28:56;;;;;;;12.65;7.72;;;1.90;66.50;;;;;;5001010;28;20117;-75
2020/12/28 01:31:21;;;;;;;12.52;7.90;;;1.90;66.70;;;;;;5002391;28;20237;-73
2020/12/28 01:33:47;;;;;;;11.75;6.90;;;2.00;67.30;;;;;;5003647;28;20101;-74
2020/12/28 01:36:12;;;;;;;10.50;6.93;;;2.00;67.00;;;;;;5002730;28;20229;-69
2020/12/28 01:38:38;;;;;;;11.85;6.95;;;2.00;65.40;;;;;;5002309;28;20110;-74
2020/12/28 01:41:03;;;;;;;13.82;7.57;;;2.00;66.80;;;;;;5000668;28;20034;-74
2020/12/28 01:43:30;;;;;;;12.52;7.63;;;2.00;66.20;;;;;;5002006;28;20198;-74
2020/12/28 01:45:56;;;;;;;11.75;7.45;;;1.90;66.70;;;;;;4986235;28;20057;-74
2020/12/28 01:48:21;;;;;;;12.18;7.63;;;2.10;67.20;;;;;;5000850;28;20042;-74
2020/12/28 01:50:47;;;;;;;14.52;7.25;;;1.90;67.00;;;;;;5001933;28;20220;-75
2020/12/28 01:53:14;;;;;;;13.07;7.30;;;2.00;67.00;;;;;;4984503;28;20380;-75
2020/12/28 01:55:41;;;;;;;13.13;7.50;;;2.10;67.70;;;;;;5000632;28;20035;-74
2020/12/28 01:58:07;;;;;;;12.35;7.28;;;2.10;67.60;;;;;;5002084;28;20329;-75
2020/12/28 02:00:33;;;;;;;12.85;7.30;;;2.00;67.10;;;;;;5001902;28;20081;-74
2020/12/28 02:02:58;;;;;;;16.67;7.35;;;1.90;67.10;;;;;;4977683;28;20042;-75
2020/12/28 02:05:24;;;;;;;10.82;6.63;;;1.90;67.50;;;;;;4997649;28;20069;-75
2020/12/28 02:07:53;;;;;;;10.48;6.53;;;1.90;66.80;;;;;;5000655;28;20045;-75
2020/12/28 02:10:18;;;;;;;9.80;6.75;;;1.90;67.30;;;;;;5003599;28;20293;-75
2020/12/28 02:12:44;;;;;;;11.32;6.85;;;1.90;67.30;;;;;;5001532;28;20034;-75
2020/12/28 02:15:09;;;;;;;10.50;7.07;;;1.90;67.40;;;;;;5000546;28;20105;-75
2020/12/28 02:17:35;;;;;;;9.07;6.25;;;1.90;67.30;;;;;;5001637;28;20049;-74
2020/12/28 02:20:00;;;;;;;12.77;7.18;;;1.90;66.70;;;;;;5001505;28;20042;-74
2020/12/28 02:22:26;;;;;;;11.52;6.95;;;1.90;67.20;;;;;;5001868;28;20056;-73
2020/12/28 02:24:51;;;;;;;10.02;6.20;;;1.90;67.10;;;;;;5002350;28;20199;-75
2020/12/28 02:27:17;;;;;;;9.60;6.20;;;1.90;67.60;;;;;;5001618;28;20030;-75
2020/12/28 02:29:42;;;;;;;11.75;6.40;;;1.90;67.30;;;;;;5001574;28;20062;-74
2020/12/28 02:32:08;;;;;;;9.88;6.15;;;1.90;66.40;;;;;;5000342;28;20037;-74
2020/12/28 02:34:34;;;;;;;9.93;6.30;;;1.90;66.50;;;;;;5000015;28;20026;-74
2020/12/28 02:37:00;;;;;;;10.93;6.38;;;1.90;67.90;;;;;;5003387;28;20031;-75
2020/12/28 02:39:25;;;;;;;8.80;5.70;;;1.90;67.70;;;;;;5000304;28;20054;-75
2020/12/28 02:41:51;;;;;;;11.50;6.18;;;1.90;67.30;;;;;;5001378;28;20049;-75
2020/12/28 02:44:16;;;;;;;11.00;6.00;;;1.90;68.20;;;;;;5001481;28;20064;-75
2020/12/28 02:46:42;;;;;;;10.02;6.50;;;1.90;68.20;;;;;;5001747;28;20116;-75
2020/12/28 02:49:08;;;;;;;11.25;5.90;;;1.90;68.70;;;;;;5004178;28;20054;-74
2020/12/28 02:51:34;;;;;;;10.85;5.70;;;1.90;68.10;;;;;;5000259;28;20081;-75
2020/12/28 02:53:59;;;;;;;10.35;5.97;;;2.00;67.80;;;;;;5000038;28;20038;-74
2020/12/28 02:56:25;;;;;;;8.95;5.22;;;1.90;67.70;;;;;;5000234;28;20034;-74
2020/12/28 02:58:50;;;;;;;12.63;5.97;;;1.90;67.50;;;;;;5001462;28;20073;-75
2020/12/28 03:01:16;;;;;;;9.95;6.03;;;1.90;68.20;;;;;;5004833;28;20053;-75
2020/12/28 03:03:41;;;;;;;8.43;5.28;;;1.90;68.50;;;;;;5004134;28;20038;-75
2020/12/28 03:06:07;;;;;;;9.68;5.35;;;1.90;68.50;;;;;;5003787;28;20035;-75
2020/12/28 03:08:32;;;;;;;7.28;5.10;;;1.90;68.80;;;;;;5004852;28;20198;-74
2020/12/28 03:10:58;;;;;;;8.77;4.97;;;2.00;67.80;;;;;;5004596;28;20038;-74
2020/12/28 03:13:23;;;;;;;8.93;4.70;;;2.00;67.00;;;;;;5004919;28;20050;-74
2020/12/28 03:15:49;;;;;;;7.78;4.95;;;2.00;66.50;;;;;;4988524;28;20276;-75
2020/12/28 03:18:14;;;;;;;6.60;4.38;;;1.90;66.90;;;;;;5003877;28;20061;-75
2020/12/28 03:20:40;;;;;;;10.48;4.88;;;2.00;66.30;;;;;;4987389;28;20081;-74
2020/12/28 03:23:05;;;;;;;8.15;4.50;;;2.00;66.80;;;;;;5003875;28;20030;-75
2020/12/28 03:25:31;;;;;;;6.20;4.05;;;2.10;67.00;;;;;;5004969;28;20042;-74
2020/12/28 03:27:56;;;;;;;6.78;4.50;;;2.10;66.80;;;;;;5006490;28;20089;-75
2020/12/28 03:30:22;;;;;;;8.30;4.20;;;2.00;67.30;;;;;;5004538;28;20042;-74
2020/12/28 03:32:47;;;;;;;9.68;4.38;;;2.10;66.40;;;;;;5003771;28;20049;-74
2020/12/28 03:35:13;;;;;;;7.78;4.60;;;2.10;66.10;;;;;;5004440;28;20077;-75
2020/12/28 03:37:38;;;;;;;7.15;4.20;;;2.10;65.50;;;;;;5003099;28;20034;-74
2020/12/28 03:40:04;;;;;;;8.68;4.22;;;2.20;67.20;;;;;;5007514;28;20082;-75
2020/12/28 03:42:30;;;;;;;6.70;4.20;;;2.20;67.50;;;;;;5003246;28;20031;-75
2020/12/28 03:44:55;;;;;;;6.75;4.22;;;2.20;67.60;;;;;;5003066;28;20080;-74
2020/12/28 03:47:21;;;;;;;7.55;3.97;;;2.20;67.00;;;;;;5002976;28;20042;-75
2020/12/28 03:49:46;;;;;;;7.72;4.45;;;2.20;67.20;;;;;;5004103;28;20031;-74
2020/12/28 03:52:13;;;;;;;7.45;4.38;;;2.20;68.60;;;;;;5007067;28;20041;-75
2020/12/28 03:54:38;;;;;;;7.03;4.57;;;2.20;68.30;;;;;;5004306;28;20068;-75
2020/12/28 03:57:04;;;;;;;7.88;4.38;;;2.10;67.30;;;;;;5004113;28;20042;-75
2020/12/28 03:59:29;;;;;;;9.40;4.80;;;2.00;68.20;;;;;;5002816;28;20042;-75
2020/12/28 04:01:55;;;;;;;7.57;4.65;;;2.10;68.50;;;;;;5003025;28;20052;-74
2020/12/28 04:04:20;;;;;;;6.63;4.30;;;2.10;67.70;;;;;;5007153;28;20038;-75
2020/12/28 04:06:46;;;;;;;6.88;4.28;;;2.20;68.20;;;;;;5004602;28;20142;-74
2020/12/28 04:09:11;;;;;;;7.07;4.07;;;2.20;68.60;;;;;;5003673;28;20049;-75
2020/12/28 04:11:37;;;;;;;7.82;4.28;;;2.20;67.50;;;;;;5003691;28;20054;-74
2020/12/28 04:14:02;;;;;;;7.20;4.70;;;2.30;68.20;;;;;;5002732;28;20041;-74
2020/12/28 04:16:28;;;;;;;9.65;4.72;;;2.20;68.80;;;;;;5004970;28;20042;-74
2020/12/28 04:18:53;;;;;;;7.85;4.40;;;2.30;67.70;;;;;;5005556;28;20031;-75
2020/12/28 04:21:19;;;;;;;7.82;4.40;;;2.30;67.50;;;;;;5002424;28;20046;-75
2020/12/28 04:23:45;;;;;;;9.02;4.88;;;2.30;67.40;;;;;;5002385;28;20037;-74
2020/12/28 04:26:10;;;;;;;8.00;4.80;;;2.40;65.80;;;;;;5003674;28;20356;-74
2020/12/28 04:28:36;;;;;;;7.03;5.05;;;2.40;67.50;;;;;;5001919;28;20085;-74
2020/12/28 04:31:01;;;;;;;8.38;4.50;;;2.50;67.50;;;;;;5006305;28;20030;-74
2020/12/28 04:33:27;;;;;;;8.65;5.03;;;2.50;67.40;;;;;;4985782;28;20039;-74
2020/12/28 04:35:52;;;;;;;9.27;5.07;;;2.40;66.50;;;;;;5002123;28;20038;-74
2020/12/28 04:38:18;;;;;;;10.88;5.60;;;2.20;66.30;;;;;;5001973;28;20034;-74
2020/12/28 04:40:43;;;;;;;10.23;5.10;;;2.20;66.70;;;;;;5001869;28;20081;-74
2020/12/28 04:43:11;;;;;;;8.27;4.90;;;2.40;67.10;;;;;;5005089;28;20033;-75
2020/12/28 04:45:37;;;;;;;10.00;4.93;;;2.30;68.10;;;;;;5002212;28;20120;-75
2020/12/28 04:48:06;;;;;;;8.65;5.18;;;2.40;68.00;;;;;;4985300;28;20043;-74
2020/12/28 04:50:32;;;;;;;8.93;4.97;;;2.40;67.70;;;;;;5002245;28;20336;-74
2020/12/28 04:52:58;;;;;;;10.73;5.03;;;2.40;67.90;;;;;;5001806;28;20030;-75
2020/12/28 04:55:24;;;;;;;7.97;4.80;;;2.40;68.50;;;;;;5003497;28;20030;-74
2020/12/28 04:57:49;;;;;;;12.10;4.43;;;2.30;68.10;;;;;;5004458;28;20038;-74
2020/12/28 05:00:15;;;;;;;10.23;4.97;;;2.30;67.90;;;;;;5001093;28;20106;-74
2020/12/28 05:02:41;;;;;;;9.38;4.60;;;2.30;68.30;;;;;;5001265;28;20022;-75
2020/12/28 05:05:07;;;;;;;6.43;4.32;;;2.40;69.10;;;;;;4984653;28;20221;-74
2020/12/28 05:07:33;;;;;;;10.25;5.20;;;2.50;68.70;;;;;;5001341;28;20034;-73
2020/12/28 05:10:00;;;;;;;8.90;4.43;;;2.40;68.20;;;;;;5004441;28;20026;-75
2020/12/28 05:12:25;;;;;;;8.20;4.65;;;2.20;67.20;;;;;;5001632;28;20105;-75
2020/12/28 05:14:51;;;;;;;8.75;4.47;;;2.30;67.00;;;;;;5001074;28;20096;-75
2020/12/28 05:17:16;;;;;;;9.00;4.80;;;2.40;68.70;;;;;;5002317;28;20031;-74
2020/12/28 05:19:42;;;;;;;8.05;4.57;;;2.50;68.60;;;;;;5002295;28;20325;-74
2020/12/28 05:22:07;;;;;;;7.80;4.90;;;2.50;67.60;;;;;;5004577;28;20038;-75
2020/12/28 05:24:33;;;;;;;8.02;4.47;;;2.50;66.60;;;;;;5001197;28;20038;-75
2020/12/28 05:26:58;;;;;;;6.93;4.50;;;2.50;66.30;;;;;;5001769;28;20255;-74
2020/12/28 05:29:25;;;;;;;7.00;4.25;;;2.50;66.00;;;;;;5001158;28;20376;-74
2020/12/28 05:31:52;;;;;;;8.25;4.60;;;2.50;66.10;;;;;;5000710;28;20058;-74
2020/12/28 05:34:25;;;;;;;7.03;4.40;;;2.50;66.00;;;;;;5004393;28;20030;-74
2020/12/28 05:36:55;;;;;;;11.68;4.55;;;2.30;66.30;;;;;;5002777;28;20030;-75
2020/12/28 05:39:22;;;;;;;7.88;4.53;;;2.30;66.90;;;;;;5001276;28;20109;-75
2020/12/28 05:42:07;;;;;;;8.05;4.40;;;2.40;66.70;;;;;;5001014;28;20046;-74
2020/12/28 05:44:33;;;;;;;6.20;3.88;;;2.40;67.00;;;;;;5001010;28;20106;-75
2020/12/28 05:47:16;;;;;;;7.55;4.43;;;2.40;67.30;;;;;;5000829;28;20038;-74
2020/12/28 05:49:46;;;;;;;6.82;4.25;;;2.30;67.50;;;;;;5002054;28;20038;-74
2020/12/28 05:52:16;;;;;;;11.00;5.50;;;2.40;65.70;;;;;;5003857;28;20106;-74
2020/12/28 05:54:41;;;;;;;12.10;4.78;;;2.50;66.90;;;;;;5001003;28;20101;-74
2020/12/28 05:57:07;;;;;;;10.05;5.25;;;2.50;67.10;;;;;;5000626;28;20301;-74
2020/12/28 05:59:33;;;;;;;9.52;5.43;;;2.50;66.20;;;;;;5000458;28;20269;-75
2020/12/28 06:01:59;;;;;;;10.77;5.30;;;2.60;65.90;;;;;;5000397;28;20096;-74
2020/12/28 06:04:25;;;;;;;10.88;5.78;;;2.60;65.00;;;;;;4985795;28;20046;-74
2020/12/28 06:06:58;;;;;;;9.70;5.57;;;2.60;66.40;;;;;;5002524;28;20202;-74
2020/12/28 06:09:24;;;;;;;7.03;3.70;;;2.70;67.20;;;;;;5000646;28;20042;-75
2020/12/28 06:11:49;;;;;;;8.27;4.07;;;2.80;66.90;;;;;;5000369;28;20122;-75
2020/12/28 06:14:16;;;;;;;6.50;3.72;;;2.80;66.10;;;;;;4983875;28;20043;-75
2020/12/28 06:16:42;;;;;;;5.68;3.40;;;2.90;65.20;;;;;;5000035;28;20379;-75
2020/12/28 06:19:19;;;;;;;7.05;3.30;;;2.90;65.10;;;;;;5003843;28;20035;-75
2020/12/28 06:21:44;;;;;;;5.10;3.30;;;2.90;62.70;;;;;;4984326;28;20039;-75
2020/12/28 06:24:10;;;;;;;5.95;3.50;;;2.90;63.80;;;;;;5000760;28;20042;-76
2020/12/28 06:26:35;;;;;;;7.97;3.70;;;2.90;63.80;;;;;;5001113;28;20038;-76
2020/12/28 06:29:07;;;;;;;6.07;3.70;;;2.90;61.70;;;;;;5001474;28;20061;-75
2020/12/28 06:31:33;;;;;;;6.32;3.72;;;2.90;61.80;;;;;;5001118;28;20042;-74
2020/12/28 06:33:59;;;;;;;8.93;4.95;;;2.90;61.50;;;;;;5003376;28;20035;-76
2020/12/28 06:36:24;;;;;;;11.18;4.50;;;2.90;62.30;;;;;;5001815;28;20104;-76
2020/12/28 06:38:57;;;;;;;8.82;3.60;;;2.90;61.80;;;;;;5004144;28;20062;-76
2020/12/28 06:41:30;;;;;;;6.65;3.90;;;3.10;62.00;;;;;;4987911;28;20046;-75
2020/12/28 06:43:58;;;;;;;8.40;4.03;;;3.00;62.70;;;;;;5003917;28;20038;-75
2020/12/28 06:46:24;;;;;;;6.78;3.92;;;2.90;62.60;;;;;;5005677;28;20042;-75
2020/12/28 06:48:49;;;;;;;8.18;4.20;;;2.90;62.10;;;;;;5005629;28;20106;-75
2020/12/28 06:51:16;;;;;;;9.05;4.82;;;2.90;61.50;;;;;;5003593;28;20045;-75
2020/12/28 06:53:42;;;;;;;8.25;4.30;;;2.90;61.70;;;;;;5004277;28;20023;-76
2020/12/28 06:56:08;;;;;;;9.63;4.30;;;3.00;62.50;;;;;;4987698;28;20031;-76
2020/12/28 06:58:34;;;;;;;9.77;4.50;;;3.00;63.50;;;;;;5003777;28;20416;-76
2020/12/28 07:01:07;;;;;;;9.20;4.57;;;3.10;62.80;;;;;;5007450;28;20050;-76
2020/12/28 07:03:33;;;;;;;15.20;5.18;;;3.10;61.90;;;;;;5003990;28;20038;-76
2020/12/28 07:06:02;;;;;;;11.35;4.63;;;3.00;61.40;;;;;;5003864;28;20038;-76
2020/12/28 07:08:28;;;;;;;9.65;4.82;;;3.10;61.60;;;;;;5003500;28;20061;-75
2020/12/28 07:11:15;;;;;;;9.45;4.70;;;3.20;61.90;;;;;;5003490;28;20086;-76
2020/12/28 07:13:41;;;;;;;9.60;4.80;;;3.20;62.20;;;;;;5003719;28;20047;-74
2020/12/28 07:16:07;;;;;;;11.52;5.30;;;3.20;61.60;;;;;;5007712;28;20026;-74
2020/12/28 07:18:33;;;;;;;8.32;4.85;;;3.20;63.10;;;;;;4987498;28;20037;-75
2020/12/28 07:20:59;;;;;;;15.10;5.07;;;3.30;62.90;;;;;;5004340;28;20042;-75
2020/12/28 07:23:25;;;;;;;7.85;4.25;;;3.20;62.30;;;;;;5003636;28;20058;-75
2020/12/28 07:26:07;;;;;;;11.93;5.22;;;3.20;62.10;;;;;;5004221;28;20249;-75
2020/12/28 07:28:33;;;;;;;7.53;4.35;;;3.20;62.00;;;;;;5003305;28;20026;-73
2020/12/28 07:30:59;;;;;;;7.43;4.60;;;3.10;62.20;;;;;;5006659;28;20221;-75
2020/12/28 07:33:25;;;;;;;8.45;4.57;;;3.10;62.50;;;;;;5003290;28;20045;-75
2020/12/28 07:36:05;;;;;;;8.10;4.45;;;3.20;62.70;;;;;;5003090;28;20046;-76
2020/12/28 07:38:31;;;;;;;8.70;5.00;;;3.30;63.60;;;;;;4987111;28;20038;-74
2020/12/28 07:40:56;;;;;;;11.18;4.72;;;3.20;63.60;;;;;;5002924;28;20276;-75
2020/12/28 07:43:22;;;;;;;10.63;4.68;;;3.20;62.70;;;;;;5005968;28;20042;-74
2020/12/28 07:45:48;;;;;;;10.18;4.63;;;3.20;62.50;;;;;;5004596;28;20034;-74
2020/12/28 07:48:14;;;;;;;12.23;5.03;;;3.30;61.30;;;;;;5001975;28;20046;-74
2020/12/28 07:50:39;;;;;;;13.25;4.72;;;3.30;61.50;;;;;;4986903;28;20031;-74
2020/12/28 07:53:11;;;;;;;9.40;5.00;;;3.30;62.50;;;;;;5002982;28;20309;-75
2020/12/28 07:55:38;;;;;;;;;;;3.40;63.30;;;;;;5002946;28;20073;-72
2020/12/28 07:58:13;;;;;;;10.00;4.68;;;3.30;62.30;;;;;;4989972;28;19898;-75
2020/12/28 08:00:43;;;;;;;13.50;4.93;;;3.30;61.30;;;;;;5004117;28;20042;-75
2020/12/28 08:03:27;;;;;;;10.77;4.93;;;3.30;61.20;;;;;;5002761;28;20037;-76
2020/12/28 08:05:53;;;;;;;10.50;5.72;;;3.30;62.70;;;;;;5002808;28;20084;-76
2020/12/28 08:08:20;;;;;;;10.25;5.03;;;3.30;62.40;;;;;;5002539;28;20030;-75
2020/12/28 08:10:58;;;;;;;13.90;5.38;;;3.40;61.30;;;;;;5002447;28;20038;-74
2020/12/28 08:13:27;;;;;;;9.30;4.90;;;3.40;60.00;;;;;;5004122;28;20221;-74
2020/12/28 08:15:52;;;;;;;9.05;5.13;;;3.40;60.60;;;;;;5005307;28;20038;-75
2020/12/28 08:18:18;;;;;;;6.97;4.80;;;3.40;60.70;;;;;;5003680;28;20046;-75
2020/12/28 08:20:43;;;;;;;9.80;5.57;;;3.40;60.80;;;;;;5003642;28;20043;-75
2020/12/28 08:23:09;;;;;;;10.07;5.40;;;3.30;60.40;;;;;;4986214;28;20258;-75
2020/12/28 08:25:36;;;;;;;9.10;6.10;;;3.30;60.80;;;;;;5002100;28;20026;-74
2020/12/28 08:28:02;;;;;;;12.05;5.32;;;3.40;60.30;;;;;;5005496;28;20082;-69
2020/12/28 08:30:28;;;;;;;10.45;5.13;;;3.30;59.60;;;;;;5002418;28;20070;-77
2020/12/28 08:32:56;;;;;;;11.90;5.28;;;3.40;60.10;;;;;;5002113;28;20043;-74
2020/12/28 08:35:22;;;;;;;8.40;5.13;;;3.30;60.10;;;;;;4986397;28;20053;-75
2020/12/28 08:37:49;;;;;;;11.32;5.80;;;3.10;59.60;;;;;;5002049;28;20038;-72
2020/12/28 08:40:15;;;;;;;12.35;6.18;;;3.10;60.40;;;;;;5005077;28;20033;-70
2020/12/28 08:42:41;;;;;;;10.38;5.47;;;3.20;60.30;;;;;;5003378;28;20042;-71
2020/12/28 08:45:07;;;;;;;10.73;5.47;;;3.30;61.50;;;;;;5003285;28;20045;-72
2020/12/28 08:47:32;;;;;;;11.52;5.40;;;3.40;61.40;;;;;;5001458;28;20106;-74
2020/12/28 08:49:58;;;;;;;10.27;5.45;;;3.40;62.80;;;;;;5002466;28;20329;-75
2020/12/28 08:52:23;;;;;;;11.95;6.18;;;3.50;61.90;;;;;;5003290;28;20074;-72
2020/12/28 08:54:55;;;;;;;13.25;6.90;;;3.40;60.90;;;;;;5003478;28;20088;-71
2020/12/28 08:57:25;;;;;;;13.98;6.65;;;3.40;60.60;;;;;;5001377;28;20084;-71
2020/12/28 08:59:51;;;;;;;14.75;6.13;;;3.40;60.50;;;;;;5001053;28;20038;-72
2020/12/28 09:02:18;;;;;;;12.70;6.15;;;3.40;60.30;;;;;;5001398;28;20030;-74
2020/12/28 09:04:44;;;;;;;13.90;6.00;;;3.50;60.80;;;;;;5001066;28;20073;-72
2020/12/28 09:07:10;;;;;;;9.38;5.80;;;3.60;61.80;;;;;;5004788;28;20110;-72
2020/12/28 09:09:36;;;;;;;11.55;5.70;;;3.60;62.30;;;;;;5001350;28;20225;-72
2020/12/28 09:12:01;;;;;;;10.45;6.28;;;3.70;62.10;;;;;;5001402;28;20061;-70
2020/12/28 09:14:27;;;;;;;14.95;5.90;;;3.60;62.10;;;;;;5001137;28;20122;-70
2020/12/28 09:16:52;;;;;;;14.07;6.05;;;3.60;60.60;;;;;;5002199;28;20042;-73
2020/12/28 09:19:18;;;;;;;16.08;6.15;;;3.60;60.80;;;;;;5005690;28;20049;-73
2020/12/28 09:21:43;;;;;;;14.32;6.63;;;3.60;60.30;;;;;;5002693;28;20049;-72
2020/12/28 09:24:09;;;;;;;14.43;6.97;;;3.60;60.00;;;;;;5001018;28;20038;-71
2020/12/28 09:26:35;;;;;;;10.23;5.95;;;3.70;59.80;;;;;;5001254;28;20094;-71
2020/12/28 09:29:00;;;;;;;10.05;6.10;;;3.60;60.60;;;;;;5001005;28;20038;-71
2020/12/28 09:31:26;;;;;;;15.82;8.38;;;3.70;62.40;;;;;;4986429;28;20022;-71
2020/12/28 09:33:51;;;;;;;15.18;8.07;;;3.70;62.30;;;;;;5004073;28;20042;-73
2020/12/28 09:36:18;;;;;;;14.38;7.18;;;3.80;62.40;;;;;;4984717;28;20041;-73
2020/12/28 09:38:44;;;;;;;17.15;7.60;;;3.80;61.60;;;;;;5000608;28;20222;-72
2020/12/28 09:41:09;;;;;;;17.92;7.65;;;3.60;61.20;;;;;;5000872;28;20042;-69
2020/12/28 09:43:35;;;;;;;17.65;7.35;;;3.60;60.60;;;;;;5000524;28;20030;-70
2020/12/28 09:46:00;;;;;;;17.60;7.63;;;3.60;61.80;;;;;;4987900;28;20208;-70
2020/12/28 09:48:26;;;;;;;15.55;7.97;;;3.60;62.70;;;;;;5001945;28;20053;-70
2020/12/28 09:50:51;;;;;;;13.20;7.18;;;3.70;62.70;;;;;;5001927;28;20038;-70
2020/12/28 09:53:17;;;;;;;15.38;7.95;;;3.70;63.00;;;;;;5001944;28;20034;-68
2020/12/28 09:55:42;;;;;;;16.55;7.10;;;3.60;61.50;;;;;;5001926;28;20053;-70
2020/12/28 09:58:08;;;;;;;15.20;7.25;;;3.60;60.80;;;;;;5004753;28;20026;-70
2020/12/28 10:00:34;;;;;;;16.67;8.10;;;3.60;61.60;;;;;;5000177;28;20056;-71
2020/12/28 10:02:59;;;;;;;20.70;8.25;;;3.70;60.60;;;;;;4984330;28;20034;-68
2020/12/28 10:05:25;;;;;;;16.00;7.47;;;3.60;61.30;;;;;;5001305;28;20045;-70
2020/12/28 10:07:50;;;;;;;17.60;8.00;;;3.70;62.80;;;;;;5001467;28;20034;-68
2020/12/28 10:10:16;;;;;;;13.75;7.75;;;3.80;62.80;;;;;;5003410;28;20026;-68
2020/12/28 10:12:41;;;;;;;15.07;8.02;;;3.90;63.00;;;;;;5001313;28;20050;-69
2020/12/28 10:15:07;;;;;;;22.88;8.18;;;3.90;62.60;;;;;;5000491;28;20050;-68
2020/12/28 10:17:33;;;;;;;18.73;8.25;;;3.90;61.70;;;;;;5000386;28;20042;-69
2020/12/28 10:19:58;;;;;;;16.13;7.70;;;3.80;60.80;;;;;;5000197;28;20093;-67
2020/12/28 10:22:26;;;;;;;16.98;7.32;;;3.80;60.40;;;;;;5002194;28;20034;-67
2020/12/28 10:24:52;;;;;;;18.20;8.23;;;3.80;62.00;;;;;;5002435;28;20226;-68
2020/12/28 10:27:18;;;;;;;23.48;8.25;;;3.90;60.90;;;;;;5001258;28;20041;-70
2020/12/28 10:29:43;;;;;;;15.35;7.30;;;3.90;61.80;;;;;;5001453;28;20317;-69
2020/12/28 10:32:09;;;;;;;19.30;8.23;;;3.90;62.20;;;;;;5001246;28;20318;-72
2020/12/28 10:34:34;;;;;;;16.05;7.15;;;3.80;60.60;;;;;;5000108;28;20026;-72
2020/12/28 10:37:00;;;;;;;21.35;7.88;;;3.80;60.00;;;;;;5004648;28;20201;-72
2020/12/28 10:39:25;;;;;;;17.90;8.75;;;3.80;59.80;;;;;;5001153;28;20035;-72
2020/12/28 10:41:51;;;;;;;17.83;8.25;;;3.80;62.30;;;;;;5001218;28;20042;-74
2020/12/28 10:44:18;;;;;;;16.90;7.65;;;3.90;61.90;;;;;;5000925;28;20038;-71
2020/12/28 10:46:44;;;;;;;21.40;7.10;;;3.90;63.70;;;;;;5016358;28;20101;-74
2020/12/28 10:49:09;;;;;;;17.40;7.85;;;3.90;62.40;;;;;;5003338;28;20045;-76
2020/12/28 10:51:35;;;;;;;19.73;8.20;;;3.90;64.20;;;;;;5016351;28;20034;-71
2020/12/28 10:54:00;;;;;;;22.85;8.45;;;3.90;62.30;;;;;;4999939;28;20034;-73
2020/12/28 10:56:27;;;;;;;21.65;8.63;;;3.90;62.60;;;;;;4999895;28;20061;-71
2020/12/28 10:58:53;;;;;;;16.63;8.55;;;3.90;62.80;;;;;;5001008;28;20385;-71
2020/12/28 11:01:25;;;;;;;18.63;9.20;;;3.90;61.20;;;;;;4987299;28;20041;-72
2020/12/28 11:03:51;;;;;;;19.63;9.38;;;3.90;61.00;;;;;;5000540;28;20038;-70
2020/12/28 11:06:20;;;;;;;25.40;8.95;;;3.90;60.80;;;;;;4999709;28;20042;-71
2020/12/28 11:08:46;;;;;;;18.75;7.80;;;3.90;60.50;;;;;;4999701;28;20069;-71
2020/12/28 11:11:11;;;;;;;17.30;7.38;;;3.90;61.20;;;;;;5000099;28;20369;-71
2020/12/28 11:13:37;;;;;;;17.92;7.93;;;3.80;60.80;;;;;;4999574;28;20034;-72
2020/12/28 11:16:03;;;;;;;17.73;8.82;;;3.60;61.30;;;;;;5004465;28;20030;-73
2020/12/28 11:18:28;;;;;;;16.02;7.43;;;3.80;63.10;;;;;;4999740;28;20034;-72
2020/12/28 11:20:54;;;;;;;22.80;8.60;;;3.70;61.80;;;;;;4999794;28;20053;-72
2020/12/28 11:23:19;;;;;;;17.08;8.40;;;3.70;61.90;;;;;;5002808;28;20026;-70
2020/12/28 11:25:45;;;;;;;16.00;8.18;;;3.70;61.80;;;;;;4987219;28;20035;-72
2020/12/28 11:28:10;;;;;;;17.33;8.70;;;3.60;62.00;;;;;;5006951;28;20065;-75
2020/12/28 11:30:36;;;;;;;18.08;8.32;;;3.60;62.00;;;;;;5003346;28;20373;-71
2020/12/28 11:33:02;;;;;;;15.98;8.50;;;3.80;62.10;;;;;;5004509;28;20061;-72
2020/12/28 11:35:29;;;;;;;27.35;8.18;;;3.90;61.40;;;;;;5004360;28;20084;-72
2020/12/28 11:37:55;;;;;;;61.53;9.25;;;3.90;61.80;;;;;;5002929;28;20134;-70
2020/12/28 11:40:20;;;;;;;23.75;8.48;;;3.90;62.10;;;;;;5006182;28;20333;-70
2020/12/28 11:42:46;;;;;;;19.02;8.30;;;4.00;62.50;;;;;;5004282;28;20034;-71
2020/12/28 11:45:11;;;;;;;21.23;8.20;;;4.00;63.20;;;;;;5004190;28;20034;-74
2020/12/28 11:47:37;;;;;;;17.80;8.73;;;4.00;62.40;;;;;;5004105;28;20030;-70
2020/12/28 11:50:03;;;;;;;18.38;8.77;;;4.10;64.30;;;;;;5003861;28;20034;-72
2020/12/28 11:52:29;;;;;;;21.63;8.60;;;4.00;62.30;;;;;;4987852;28;20031;-71
2020/12/28 11:54:55;;;;;;;30.80;8.02;;;4.10;61.20;;;;;;5005911;28;20042;-71
2020/12/28 11:57:20;;;;;;;20.70;8.40;;;4.00;62.00;;;;;;5004077;28;20256;-69
2020/12/28 11:59:46;;;;;;;21.23;8.35;;;4.00;62.20;;;;;;5004161;28;20034;-69
2020/12/28 12:02:11;;;;;;;14.65;8.18;;;4.10;63.40;;;;;;5003956;28;20065;-68
2020/12/28 12:04:49;;;;;;;19.55;8.98;;;4.00;62.50;;;;;;5003634;28;20037;-69
2020/12/28 12:07:22;;;;;;;18.17;8.23;;;4.10;62.60;;;;;;5005506;28;20023;-70
2020/12/28 12:09:48;;;;;;;15.30;8.68;;;4.10;64.30;;;;;;5019274;28;20038;-70
2020/12/28 12:12:14;;;;;;;16.20;9.27;;;4.10;63.90;;;;;;5003503;28;20333;-70
2020/12/28 12:14:39;;;;;;;24.23;9.95;;;4.10;63.60;;;;;;5002054;28;20050;-70
2020/12/28 12:17:05;;;;;;;15.65;9.35;;;4.10;64.40;;;;;;5003344;28;20049;-69
2020/12/28 12:19:31;;;;;;;17.60;9.55;;;4.10;63.80;;;;;;5005417;28;20034;-69
2020/12/28 12:21:57;;;;;;;19.08;10.10;;;4.10;64.20;;;;;;4987967;28;20046;-70
2020/12/28 12:24:22;;;;;;;18.10;10.27;;;4.00;64.00;;;;;;5002218;28;20045;-70
2020/12/28 12:26:48;;;;;;;18.40;10.07;;;4.10;63.40;;;;;;5002180;28;20348;-69
2020/12/28 12:29:13;;;;;;;19.08;10.05;;;4.10;63.40;;;;;;5003128;28;20211;-69
2020/12/28 12:31:39;;;;;;;17.88;10.80;;;3.90;63.80;;;;;;5001616;28;20034;-69
2020/12/28 12:34:04;;;;;;;17.52;10.43;;;3.90;64.20;;;;;;5006026;28;20050;-69
2020/12/28 12:36:30;;;;;;;21.40;10.48;;;3.90;64.40;;;;;;5003477;28;20348;-69
2020/12/28 12:38:55;;;;;;;20.60;9.88;;;4.00;64.70;;;;;;5003021;28;20069;-68
2020/12/28 12:41:21;;;;;;;21.33;10.02;;;3.90;65.50;;;;;;5003043;28;20053;-69
2020/12/28 12:43:47;;;;;;;21.67;10.65;;;3.90;64.60;;;;;;5001904;28;20378;-68
2020/12/28 12:46:13;;;;;;;18.83;10.15;;;4.00;64.50;;;;;;5005027;28;20049;-68